Time;durP1;ratioP1;P1;durP2;ratioP2;P2;SDS_P1;SDS_P2;PMS_P1;PMS_P2;Temp;Humidity;BMP_temperature;BMP_pressure;BME280_temperature;BME280_humidity;BME280_pressure;Samples;Min_cycle;Max_cycle;Signal;HPM_P1;HPM_P2
2021/12/22 00:01:05;;;;;;;11.82;6.30;;;;;;;0.09;52.41;100715.47;5090134;28;20036;-38
2021/12/22 00:03:30;;;;;;;10.23;6.13;;;;;;;-0.15;54.10;100711.09;5089970;28;20036;-38
2021/12/22 00:05:56;;;;;;;11.93;6.43;;;;;;;-0.14;55.08;100717.16;5089442;28;20056;-38
2021/12/22 00:08:22;;;;;;;10.02;5.40;;;;;;;-0.21;53.95;100711.50;5090240;28;20516;-38
2021/12/22 00:10:49;;;;;;;9.60;5.50;;;;;;;-0.41;54.36;100720.78;5090292;28;20063;-38
2021/12/22 00:13:14;;;;;;;9.73;5.82;;;;;;;-0.27;54.48;100719.78;5090139;28;20036;-39
2021/12/22 00:15:40;;;;;;;10.30;6.00;;;;;;;-0.10;54.23;100716.81;5090537;28;20032;-38
2021/12/22 00:18:06;;;;;;;9.00;4.80;;;;;;;-0.26;54.08;100714.47;5090749;28;20023;-40
2021/12/22 00:20:31;;;;;;;10.23;5.60;;;;;;;-0.17;54.71;100718.22;5090810;28;20055;-36
2021/12/22 00:22:57;;;;;;;9.70;5.35;;;;;;;-0.69;54.73;100714.03;5090463;28;20019;-37
2021/12/22 00:25:25;;;;;;;13.45;5.63;;;;;;;-0.30;54.93;100720.88;5090223;28;20380;-37
2021/12/22 00:27:51;;;;;;;9.00;5.18;;;;;;;-0.21;54.29;100721.97;5090316;28;20107;-37
2021/12/22 00:30:17;;;;;;;10.13;5.85;;;;;;;-0.45;54.45;100716.72;5090412;28;20040;-37
2021/12/22 00:32:50;;;;;;;8.25;5.10;;;;;;;-0.18;55.36;100727.00;5088785;28;20184;-36
2021/12/22 00:35:15;;;;;;;8.65;5.40;;;;;;;-0.20;56.05;100729.72;5090196;28;20126;-37
2021/12/22 00:37:41;;;;;;;10.90;5.22;;;;;;;-0.22;54.17;100731.59;5090157;28;20098;-37
2021/12/22 00:40:07;;;;;;;9.68;5.65;;;;;;;-0.32;53.16;100727.16;5089748;28;20097;-37
2021/12/22 00:42:32;;;;;;;9.57;5.78;;;;;;;-0.18;53.78;100729.59;5090487;28;20020;-37
2021/12/22 00:44:58;;;;;;;10.20;5.70;;;;;;;-0.30;54.88;100730.50;5090142;28;20472;-37
2021/12/22 00:47:26;;;;;;;10.50;5.55;;;;;;;-0.15;53.67;100726.78;5090092;28;20076;-37
2021/12/22 00:49:52;;;;;;;10.75;5.30;;;;;;;-0.14;54.34;100731.06;5089733;28;20024;-37
2021/12/22 00:52:17;;;;;;;7.63;5.10;;;;;;;-0.20;55.49;100732.31;5088656;28;20028;-37
2021/12/22 00:54:43;;;;;;;8.82;5.45;;;;;;;-0.27;53.97;100727.66;5089663;28;20020;-37
2021/12/22 00:57:10;;;;;;;10.57;5.80;;;;;;;-0.17;52.89;100741.75;5089854;28;20111;-38
2021/12/22 00:59:35;;;;;;;8.18;5.38;;;;;;;-0.30;54.67;100733.94;5089725;28;20081;-38
2021/12/22 01:02:02;;;;;;;9.80;5.57;;;;;;;-0.10;54.47;100736.91;5090176;28;20452;-38
2021/12/22 01:04:28;;;;;;;9.73;5.15;;;;;;;-0.17;53.56;100739.13;5090255;28;20023;-38
2021/12/22 01:06:53;;;;;;;10.02;5.43;;;;;;;-0.40;53.92;100733.75;5089825;28;20048;-38
2021/12/22 01:09:19;;;;;;;8.90;5.63;;;;;;;-0.22;54.24;100741.25;5088532;28;20039;-38
2021/12/22 01:11:44;;;;;;;11.45;5.93;;;;;;;-0.41;54.41;100731.25;5090106;28;20051;-38
2021/12/22 01:14:10;;;;;;;10.18;5.75;;;;;;;-0.48;55.33;100730.00;5089946;28;20035;-37
2021/12/22 01:16:36;;;;;;;10.68;6.03;;;;;;;-0.24;54.82;100737.91;5089901;28;20054;-37
2021/12/22 01:19:05;;;;;;;8.95;5.70;;;;;;;-0.31;55.77;100747.94;5091643;28;20032;-38
2021/12/22 01:21:45;;;;;;;10.27;5.60;;;;;;;-0.55;54.69;100737.47;5094014;28;20024;-38
2021/12/22 01:24:31;;;;;;;10.48;6.15;;;;;;;-0.41;54.59;100737.31;5093608;28;20460;-38
2021/12/22 01:27:04;;;;;;;13.70;5.78;;;;;;;-0.29;54.64;100740.00;5093874;28;20368;-38
2021/12/22 01:29:31;;;;;;;9.95;5.85;;;;;;;-0.27;55.60;100732.88;5093637;28;20028;-50
2021/12/22 01:31:57;;;;;;;10.70;6.03;;;;;;;-0.31;54.12;100734.88;5092675;28;20032;-51
2021/12/22 01:34:24;;;;;;;11.40;5.93;;;;;;;-0.48;55.33;100733.44;5092130;28;20024;-50
2021/12/22 01:36:49;;;;;;;11.77;5.63;;;;;;;-0.52;54.52;100732.00;5093449;28;20147;-50
2021/12/22 01:39:15;;;;;;;9.77;5.32;;;;;;;-0.73;54.06;100726.50;5093685;28;20436;-50
2021/12/22 01:41:40;;;;;;;7.70;4.70;;;;;;;-0.42;53.47;100730.41;5093600;28;20032;-51
2021/12/22 01:44:08;;;;;;;10.52;5.30;;;;;;;-0.62;54.78;100717.91;5093364;28;20067;-51
2021/12/22 01:49:10;;;;;;;7.55;4.18;;;;;;;-0.61;53.91;100720.41;5093580;28;20050;-51
2021/12/22 01:51:39;;;;;;;7.53;4.38;;;;;;;-0.72;53.34;100728.16;5093613;28;20032;-51
2021/12/22 01:54:33;;;;;;;8.00;4.55;;;;;;;-0.75;55.11;100727.53;5093476;28;20027;-52
2021/12/22 01:57:07;;;;;;;8.57;4.18;;;;;;;-0.89;54.02;100724.09;5072451;28;20507;-49
2021/12/22 01:59:33;;;;;;;7.25;4.30;;;;;;;-0.69;53.89;100720.09;5073162;28;20036;-51
2021/12/22 02:01:59;;;;;;;8.50;4.47;;;;;;;-0.72;55.96;100716.84;5072986;28;20381;-50
2021/12/22 02:04:24;;;;;;;6.35;4.18;;;;;;;-0.63;53.84;100719.69;5073383;28;20032;-52
2021/12/22 02:06:50;;;;;;;10.13;4.88;;;;;;;-0.58;54.08;100715.91;5072640;28;20118;-51
2021/12/22 02:09:28;;;;;;;7.50;4.40;;;;;;;-0.65;55.15;100712.88;5072944;28;20032;-49
2021/12/22 02:11:53;;;;;;;9.68;5.30;;;;;;;-0.56;54.78;100721.88;5072474;28;20024;-51
2021/12/22 02:14:19;;;;;;;10.32;4.88;;;;;;;-0.45;55.05;100719.34;5071926;28;20439;-51
2021/12/22 02:16:44;;;;;;;10.05;5.20;;;;;;;-0.37;53.13;100718.78;5072477;28;20465;-50
2021/12/22 02:19:11;;;;;;;10.23;5.38;;;;;;;-0.61;55.14;100719.56;5072879;28;20035;-51
2021/12/22 02:21:46;;;;;;;8.38;5.05;;;;;;;-0.57;56.71;100725.41;5072427;28;20024;-50
2021/12/22 02:24:12;;;;;;;7.80;4.32;;;;;;;-0.91;54.72;100723.38;5072507;28;20390;-51
2021/12/22 02:26:43;;;;;;;8.05;4.47;;;;;;;-0.77;55.23;100724.22;5072633;28;20024;-51
2021/12/22 02:29:19;;;;;;;7.15;4.32;;;;;;;-0.74;55.65;100721.34;5072141;28;20028;-52
2021/12/22 02:32:01;;;;;;;7.28;3.80;;;;;;;-0.61;55.70;100720.41;5092111;28;20101;-38
2021/12/22 02:34:26;;;;;;;7.82;4.40;;;;;;;-0.86;57.54;100720.44;5092676;28;20024;-38
2021/12/22 02:36:52;;;;;;;6.50;3.75;;;;;;;-0.99;55.59;100729.13;5074296;28;20461;-38
2021/12/22 02:39:17;;;;;;;6.72;4.40;;;;;;;-0.84;56.49;100729.88;5092288;28;20028;-38
2021/12/22 02:41:43;;;;;;;8.32;4.45;;;;;;;-0.73;54.57;100717.81;5092810;28;20028;-38
2021/12/22 02:44:10;;;;;;;6.05;3.97;;;;;;;-0.81;55.31;100727.03;5092181;28;20019;-38
2021/12/22 02:46:37;;;;;;;7.53;4.40;;;;;;;-1.02;55.92;100726.72;5092253;28;20024;-37
2021/12/22 02:49:04;;;;;;;7.32;3.65;;;;;;;-1.16;56.38;100728.59;5091990;28;20035;-38
2021/12/22 02:51:30;;;;;;;8.30;3.95;;;;;;;-1.10;56.94;100728.19;5092135;28;20467;-38
2021/12/22 02:57:06;;;;;;;6.32;4.10;;;;;;;-0.91;55.53;100719.94;5059598;28;20098;-38
2021/12/22 03:00:23;;;;;;;6.72;3.90;;;;;;;-1.09;55.00;100722.00;5071617;28;20385;-38
2021/12/22 03:02:28;;;;;;;7.15;4.20;;;;;;;-1.14;55.35;100721.47;5071524;28;20462;-38
2021/12/22 03:04:56;;;;;;;5.20;3.50;;;;;;;-1.19;56.26;100725.25;5070500;28;20028;-38
2021/12/22 03:07:25;;;;;;;7.25;4.30;;;;;;;-1.39;56.76;100720.50;5071397;28;20056;-37
2021/12/22 03:10:12;;;;;;;6.70;4.15;;;;;;;-1.45;55.68;100715.72;5070462;28;20465;-37
2021/12/22 03:12:38;;;;;;;7.03;3.90;;;;;;;-1.45;54.86;100718.31;5100453;28;20033;-38
2021/12/22 03:15:04;;;;;;;7.70;3.80;;;;;;;-1.33;55.17;100712.28;5071518;28;20210;-37
2021/12/22 03:17:30;;;;;;;7.55;4.20;;;;;;;-1.19;55.79;100716.59;5071624;28;20024;-37
2021/12/22 03:19:55;;;;;;;6.53;3.92;;;;;;;-1.04;54.87;100714.72;5071644;28;20086;-37
2021/12/22 03:22:22;;;;;;;5.50;3.88;;;;;;;-1.23;54.22;100713.34;5071822;28;20031;-37
2021/12/22 03:24:49;;;;;;;6.80;3.95;;;;;;;-0.79;54.78;100719.06;5071404;28;20110;-37
2021/12/22 03:27:15;;;;;;;9.18;3.92;;;;;;;-0.84;52.73;100708.09;5071360;28;20488;-38
2021/12/22 03:29:40;;;;;;;6.80;4.20;;;;;;;-0.99;54.82;100717.81;5071211;28;20048;-38
2021/12/22 03:32:07;;;;;;;8.55;4.30;;;;;;;-1.27;54.52;100719.72;5071365;28;20024;-37
2021/12/22 03:34:33;;;;;;;6.47;4.20;;;;;;;-1.01;53.55;100723.19;5071220;28;20028;-37
2021/12/22 03:36:58;;;;;;;5.82;3.97;;;;;;;-1.05;54.66;100715.63;5070929;28;20153;-37
2021/12/22 03:39:24;;;;;;;7.05;4.10;;;;;;;-1.13;53.11;100712.72;5078810;28;20032;-38
2021/12/22 03:41:49;;;;;;;6.53;3.97;;;;;;;-1.00;53.27;100710.94;5090283;28;20031;-37
2021/12/22 03:44:15;;;;;;;8.55;3.95;;;;;;;-0.86;54.25;100723.88;5091416;28;20031;-37
2021/12/22 03:46:41;;;;;;;6.35;3.97;;;;;;;-0.77;53.17;100724.22;5090779;28;20044;-37
2021/12/22 03:49:07;;;;;;;8.52;4.32;;;;;;;-1.01;52.67;100724.94;5091121;28;20053;-37
2021/12/22 03:51:33;;;;;;;10.25;4.35;;;;;;;-0.83;53.51;100726.28;5091167;28;20024;-37
2021/12/22 03:53:59;;;;;;;7.57;4.30;;;;;;;-1.15;54.45;100722.44;5090775;28;20380;-37
2021/12/22 03:56:24;;;;;;;8.98;4.70;;;;;;;-1.31;54.94;100725.25;5090923;28;20129;-38
2021/12/22 03:58:50;;;;;;;10.85;4.60;;;;;;;-0.98;53.50;100727.34;5090532;28;20428;-37
2021/12/22 04:01:16;;;;;;;7.82;4.50;;;;;;;-1.00;54.54;100726.63;5090716;28;20074;-37
2021/12/22 04:03:44;;;;;;;10.27;4.82;;;;;;;-1.05;54.77;100724.34;5090485;28;20098;-37
2021/12/22 04:06:10;;;;;;;8.77;4.63;;;;;;;-1.10;53.74;100717.75;5090052;28;20139;-38
2021/12/22 04:08:36;;;;;;;8.32;4.63;;;;;;;-1.02;54.39;100728.50;5089908;28;20031;-37
2021/12/22 04:11:02;;;;;;;9.65;4.80;;;;;;;-0.90;54.84;100735.50;5089539;28;20472;-38
2021/12/22 04:13:27;;;;;;;8.55;4.78;;;;;;;-0.98;52.74;100735.19;5090139;28;20027;-37
2021/12/22 04:15:53;;;;;;;8.18;4.40;;;;;;;-0.87;54.20;100735.28;5089959;28;20023;-37
2021/12/22 04:18:18;;;;;;;8.85;4.97;;;;;;;-1.14;54.37;100740.63;5089793;28;20125;-38
2021/12/22 04:20:44;;;;;;;6.95;4.38;;;;;;;-1.11;53.03;100737.78;5090227;28;20039;-37
2021/12/22 04:23:09;;;;;;;6.95;4.65;;;;;;;-1.06;53.14;100748.78;5090517;28;20436;-37
2021/12/22 04:25:35;;;;;;;8.00;4.50;;;;;;;-0.90;52.41;100753.78;5090324;28;20035;-37
2021/12/22 04:28:05;;;;;;;7.35;4.40;;;;;;;-1.46;55.36;100754.06;5089797;28;20596;-37
2021/12/22 04:30:32;;;;;;;7.50;4.50;;;;;;;-1.47;55.44;100756.75;5090690;28;20038;-38
2021/12/22 04:32:57;;;;;;;7.97;4.38;;;;;;;-1.77;56.26;100742.19;5090237;28;20032;-36
2021/12/22 04:35:23;;;;;;;7.55;4.50;;;;;;;-1.78;55.97;100748.31;5090544;28;20035;-37
2021/12/22 04:37:48;;;;;;;96.82;32.72;;;;;;;-1.97;57.60;100748.66;5090510;28;20345;-37
2021/12/22 04:40:14;;;;;;;13.82;5.63;;;;;;;-2.17;58.14;100762.97;5090147;28;20028;-37
2021/12/22 04:42:39;;;;;;;8.80;4.60;;;;;;;-1.75;58.51;100761.19;5090461;28;20092;-38
2021/12/22 04:45:07;;;;;;;36.45;13.40;;;;;;;-1.80;58.20;100761.47;5090150;28;20110;-37
2021/12/22 04:47:33;;;;;;;44.28;18.58;;;;;;;-1.73;58.75;100761.91;5089894;28;20085;-37
2021/12/22 04:50:00;;;;;;;85.57;29.48;;;;;;;-1.82;58.25;100762.50;5090278;28;20088;-37
2021/12/22 04:52:32;;;;;;;57.72;21.13;;;;;;;-2.11;58.45;100756.53;5089314;28;20547;-37
2021/12/22 04:55:04;;;;;;;11.93;6.32;;;;;;;-1.77;58.10;100757.84;5089604;28;20059;-37
2021/12/22 04:57:31;;;;;;;10.02;5.70;;;;;;;-1.87;59.98;100764.56;5089241;28;20036;-37
2021/12/22 04:59:56;;;;;;;12.25;6.30;;;;;;;-2.06;58.51;100768.34;5088980;28;20079;-37
2021/12/22 05:02:22;;;;;;;13.15;6.25;;;;;;;-2.14;59.69;100770.59;5089543;28;20460;-38
2021/12/22 05:04:47;;;;;;;17.80;6.43;;;;;;;-2.02;59.15;100767.25;5090359;28;20034;-37
2021/12/22 05:07:13;;;;;;;11.57;6.10;;;;;;;-2.00;61.18;100775.81;5089251;28;20048;-38
2021/12/22 05:09:38;;;;;;;11.85;6.07;;;;;;;-2.36;58.01;100778.94;5088445;28;20038;-38
2021/12/22 05:12:04;;;;;;;14.23;6.97;;;;;;;-2.37;58.54;100778.09;5089766;28;20458;-38
2021/12/22 05:14:30;;;;;;;13.73;6.38;;;;;;;-2.10;60.22;100786.91;5089914;28;20024;-39
2021/12/22 05:17:00;;;;;;;15.20;7.22;;;;;;;-2.50;58.97;100792.81;5089460;28;20468;-36
2021/12/22 05:19:26;;;;;;;16.55;7.18;;;;;;;-1.99;59.47;100785.28;5089370;28;20035;-37
2021/12/22 05:21:51;;;;;;;12.40;6.70;;;;;;;-2.12;59.07;100773.94;5089249;28;20032;-38
2021/12/22 05:24:17;;;;;;;12.18;6.28;;;;;;;-2.08;60.89;100782.44;5089191;28;20039;-38
2021/12/22 05:26:42;;;;;;;15.13;7.03;;;;;;;-2.13;60.30;100787.09;5088905;28;20036;-37
2021/12/22 05:29:08;;;;;;;19.15;8.15;;;;;;;-1.72;58.40;100784.47;5088938;28;20024;-37
2021/12/22 05:31:34;;;;;;;13.95;7.40;;;;;;;-1.71;56.59;100786.16;5088714;28;20055;-37
2021/12/22 05:33:59;;;;;;;18.38;7.72;;;;;;;-1.64;58.67;100791.78;5088504;28;20028;-38
2021/12/22 05:36:25;;;;;;;15.07;7.32;;;;;;;-1.76;58.83;100790.81;5085326;28;20024;-38
2021/12/22 05:38:50;;;;;;;15.00;7.30;;;;;;;-1.97;59.25;100795.63;5088484;28;20055;-38
2021/12/22 05:41:15;;;;;;;16.15;7.60;;;;;;;-1.92;60.54;100803.16;5088426;28;20456;-37
2021/12/22 05:43:41;;;;;;;15.00;7.35;;;;;;;-1.75;61.72;100800.34;5088216;28;20635;-37
2021/12/22 05:46:06;;;;;;;15.60;7.65;;;;;;;-1.54;65.01;100798.13;5088245;28;20043;-38
2021/12/22 05:48:32;;;;;;;15.07;7.28;;;;;;;-1.33;62.60;100813.28;5088068;28;20032;-37
2021/12/22 05:50:59;;;;;;;15.82;8.15;;;;;;;-1.63;59.48;100801.31;5087695;28;20028;-37
2021/12/22 05:53:25;;;;;;;16.23;8.02;;;;;;;-1.42;58.72;100804.31;5086656;28;20088;-39
2021/12/22 05:55:50;;;;;;;98.78;36.00;;;;;;;-1.72;59.68;100812.34;5087390;28;20396;-38
2021/12/22 05:58:16;;;;;;;38.63;14.18;;;;;;;-1.97;59.74;100811.28;5086867;28;20078;-38
2021/12/22 06:00:41;;;;;;;16.80;8.73;;;;;;;-1.74;58.97;100824.66;5086944;28;20031;-36
2021/12/22 06:03:07;;;;;;;16.02;8.35;;;;;;;-1.60;58.96;100819.38;5086995;28;20016;-38
2021/12/22 06:05:32;;;;;;;19.17;8.32;;;;;;;-0.72;61.76;100816.19;5090211;28;20127;-39
2021/12/22 06:07:58;;;;;;;20.40;8.20;;;;;;;-1.15;56.31;100822.53;5089916;28;20340;-37
2021/12/22 06:10:23;;;;;;;32.03;13.38;;;;;;;-1.59;57.65;100819.28;5089636;28;20069;-36
2021/12/22 06:12:49;;;;;;;16.63;8.07;;;;;;;-1.76;55.92;100816.91;5089561;28;20024;-38
2021/12/22 06:15:14;;;;;;;17.52;8.48;;;;;;;-1.51;55.62;100813.56;5087694;28;20051;-37
2021/12/22 06:17:40;;;;;;;14.95;7.60;;;;;;;-1.31;54.69;100824.50;5087786;28;20040;-37
2021/12/22 06:20:05;;;;;;;16.00;8.18;;;;;;;-1.30;54.88;100821.78;5088524;28;20198;-38
2021/12/22 06:22:33;;;;;;;13.70;7.35;;;;;;;-1.12;54.30;100829.31;5088619;28;20064;-38
2021/12/22 06:24:58;;;;;;;17.48;8.20;;;;;;;-0.71;53.46;100834.41;5089071;28;20020;-38
2021/12/22 06:27:24;;;;;;;17.88;8.57;;;;;;;-0.56;52.66;100842.97;5089416;28;20051;-38
2021/12/22 06:29:49;;;;;;;15.55;7.95;;;;;;;-0.60;53.34;100836.28;5091479;28;20027;-38
2021/12/22 06:32:15;;;;;;;20.50;9.20;;;;;;;-0.68;53.63;100836.81;5091198;28;20032;-39
2021/12/22 06:34:40;;;;;;;20.50;10.25;;;;;;;-0.61;53.53;100832.00;5091039;28;20110;-38
2021/12/22 06:37:06;;;;;;;24.60;11.45;;;;;;;-0.45;52.90;100840.47;5090569;28;20032;-38
2021/12/22 06:39:31;;;;;;;19.30;10.00;;;;;;;0.06;52.36;100834.34;5072730;28;20082;-38
2021/12/22 06:41:57;;;;;;;20.55;10.05;;;;;;;-0.13;52.44;100826.09;5090962;28;20101;-38
2021/12/22 06:44:23;;;;;;;18.15;9.57;;;;;;;0.09;51.03;100822.78;5089548;28;20535;-38
2021/12/22 06:46:49;;;;;;;16.00;8.32;;;;;;;0.35;50.05;100821.75;5090940;28;20487;-39
2021/12/22 06:49:15;;;;;;;16.33;9.38;;;;;;;0.53;49.48;100821.34;5091064;28;20059;-38
2021/12/22 06:51:41;;;;;;;15.10;8.05;;;;;;;0.90;49.12;100826.53;5091056;28;20051;-38
2021/12/22 06:54:06;;;;;;;16.67;8.45;;;;;;;1.02;48.27;100824.75;5091195;28;20411;-38
2021/12/22 06:56:32;;;;;;;15.98;7.93;;;;;;;1.38;47.01;100834.25;5090980;28;20028;-37
2021/12/22 06:58:59;;;;;;;11.35;7.35;;;;;;;1.56;46.65;100832.84;5090744;28;20047;-37
2021/12/22 07:01:24;;;;;;;17.20;8.88;;;;;;;1.48;46.64;100829.13;5090986;28;20024;-38
2021/12/22 07:03:50;;;;;;;14.43;7.85;;;;;;;1.73;50.55;100833.31;5090969;28;20057;-38
2021/12/22 07:06:15;;;;;;;35.08;17.85;;;;;;;1.73;47.13;100828.06;5089024;28;20080;-38
2021/12/22 07:08:42;;;;;;;58.35;28.35;;;;;;;1.93;46.90;100824.72;5091062;28;20052;-39
2021/12/22 07:11:09;;;;;;;16.52;8.38;;;;;;;1.99;44.80;100828.66;5090899;28;20058;-39
2021/12/22 07:13:34;;;;;;;12.70;7.28;;;;;;;1.96;45.96;100831.50;5090597;28;20024;-39
2021/12/22 07:15:59;;;;;;;15.15;8.40;;;;;;;2.07;44.08;100831.50;5089192;28;20031;-38
2021/12/22 07:18:25;;;;;;;15.88;7.72;;;;;;;2.21;44.79;100840.06;5091092;28;20392;-39
2021/12/22 07:20:50;;;;;;;15.48;7.50;;;;;;;2.15;43.59;100844.00;5090705;28;20384;-38
2021/12/22 07:23:16;;;;;;;17.92;8.18;;;;;;;1.89;44.27;100838.22;5090393;28;20020;-38
2021/12/22 07:25:42;;;;;;;17.70;9.00;;;;;;;1.99;45.08;100847.03;5089063;28;20137;-38
2021/12/22 07:28:10;;;;;;;14.65;9.20;;;;;;;2.22;44.44;100845.19;5088893;28;20070;-38
2021/12/22 07:30:36;;;;;;;14.18;7.63;;;;;;;2.11;44.21;100832.94;5090286;28;20403;-39
2021/12/22 07:33:03;;;;;;;19.25;7.60;;;;;;;2.34;43.20;100852.13;5088616;28;20047;-39
2021/12/22 07:35:41;;;;;;;16.08;7.85;;;;;;;1.87;43.61;100848.81;5090081;28;20497;-39
2021/12/22 07:38:24;;;;;;;12.25;7.00;;;;;;;1.50;43.97;100846.41;5088986;28;20077;-39
2021/12/22 07:40:54;;;;;;;16.38;7.85;;;;;;;1.79;44.71;100845.13;5070102;28;20437;-39
2021/12/22 07:43:19;;;;;;;16.08;7.38;;;;;;;2.48;47.62;100853.63;5070112;28;20037;-40
2021/12/22 07:45:45;;;;;;;19.58;7.80;;;;;;;3.49;43.12;100857.56;5072576;28;20040;-38
2021/12/22 07:48:10;;;;;;;13.20;7.25;;;;;;;5.68;55.24;100865.28;5090787;28;20024;-39
2021/12/22 07:50:36;;;;;;;12.93;6.93;;;;;;;6.95;45.34;100850.50;5090922;28;20020;-39
2021/12/22 07:53:01;;;;;;;12.27;7.07;;;;;;;7.39;41.85;100856.63;5090511;28;20476;-38
2021/12/22 07:55:27;;;;;;;14.13;7.53;;;;;;;7.51;38.88;100854.56;5090354;28;20024;-39
2021/12/22 07:57:52;;;;;;;13.93;7.45;;;;;;;6.34;40.13;100863.50;5089128;28;20035;-38
2021/12/22 08:00:18;;;;;;;17.00;9.10;;;;;;;6.11;40.81;100855.13;5089612;28;20031;-39
2021/12/22 08:02:43;;;;;;;17.42;8.05;;;;;;;6.41;40.29;100859.25;5090544;28;20028;-38
2021/12/22 08:05:09;;;;;;;12.50;7.35;;;;;;;7.06;41.42;100855.53;5089910;28;20024;-38
2021/12/22 08:07:34;;;;;;;12.73;7.63;;;;;;;6.58;36.31;100859.44;5090571;28;20051;-38
2021/12/22 08:10:01;;;;;;;12.38;7.45;;;;;;;5.88;38.45;100857.28;5090447;28;20141;-38
2021/12/22 08:12:26;;;;;;;12.63;7.70;;;;;;;6.36;36.46;100858.88;5088928;28;20078;-38
2021/12/22 08:14:52;;;;;;;13.93;8.15;;;;;;;6.41;38.36;100859.25;5090496;28;20411;-38
2021/12/22 08:17:17;;;;;;;15.75;9.30;;;;;;;5.78;37.24;100864.41;5090114;28;20416;-38
2021/12/22 08:19:45;;;;;;;15.63;9.27;;;;;;;5.18;38.55;100854.13;5090191;28;20027;-38
2021/12/22 08:22:10;;;;;;;16.95;8.52;;;;;;;4.92;38.71;100853.91;5090414;28;20123;-39
2021/12/22 08:24:37;;;;;;;17.13;8.70;;;;;;;4.50;39.41;100861.09;5089689;28;20487;-40
2021/12/22 08:27:03;;;;;;;16.15;8.55;;;;;;;4.56;39.78;100862.34;5089105;28;20028;-38
2021/12/22 08:29:28;;;;;;;15.18;8.35;;;;;;;4.94;39.18;100857.22;5089858;28;20023;-39
2021/12/22 08:31:54;;;;;;;15.20;8.60;;;;;;;4.89;39.63;100862.91;5089292;28;20550;-39
2021/12/22 08:34:26;;;;;;;18.98;8.38;;;;;;;4.82;39.52;100867.91;5090070;28;20103;-39
2021/12/22 08:39:36;;;;;;;24.98;10.45;;;;;;;4.23;41.15;100866.19;5089582;28;20031;-38
2021/12/22 08:42:02;;;;;;;21.60;10.32;;;;;;;4.27;40.98;100870.22;5089734;28;20050;-37
2021/12/22 08:44:27;;;;;;;21.73;10.65;;;;;;;3.82;41.79;100868.78;5089045;28;20622;-38
2021/12/22 08:46:53;;;;;;;24.60;11.60;;;;;;;3.96;42.56;100864.13;5089591;28;20117;-38
2021/12/22 08:49:19;;;;;;;20.35;11.07;;;;;;;4.07;41.32;100859.63;5089214;28;20050;-38
2021/12/22 08:51:45;;;;;;;20.05;10.57;;;;;;;4.26;40.87;100823.72;5089768;28;20028;-38
2021/12/22 08:54:10;;;;;;;20.15;10.30;;;;;;;4.51;40.57;100856.63;5089407;28;20031;-39
2021/12/22 08:56:36;;;;;;;19.25;9.75;;;;;;;4.14;40.78;100857.25;5089024;28;20058;-38
2021/12/22 08:59:02;;;;;;;19.33;9.65;;;;;;;4.18;41.19;100856.03;5089564;28;20120;-38
2021/12/22 09:01:28;;;;;;;14.63;8.85;;;;;;;4.33;40.14;100853.03;5089757;28;20032;-38
2021/12/22 09:03:54;;;;;;;13.27;7.95;;;;;;;4.34;40.33;100855.53;5089494;28;20039;-38
2021/12/22 09:06:19;;;;;;;19.27;8.85;;;;;;;4.17;40.86;100843.84;5089256;28;20056;-38
2021/12/22 09:08:45;;;;;;;17.38;9.15;;;;;;;4.22;41.29;100846.06;5089792;28;20089;-38
2021/12/22 09:11:10;;;;;;;16.92;9.00;;;;;;;4.30;40.86;100840.94;5087970;28;20491;-38
2021/12/22 09:13:37;;;;;;;16.48;8.60;;;;;;;4.48;40.28;100844.56;5089374;28;20055;-39
2021/12/22 09:16:03;;;;;;;15.57;8.10;;;;;;;4.66;39.36;100843.88;5089409;28;20047;-38
2021/12/22 09:18:28;;;;;;;12.43;8.07;;;;;;;4.47;40.16;100834.16;5089371;28;20027;-38
2021/12/22 09:20:54;;;;;;;16.40;8.50;;;;;;;4.82;39.49;100832.81;5089132;28;20020;-38
2021/12/22 09:23:19;;;;;;;11.77;6.57;;;;;;;4.82;38.63;100832.81;5089158;28;20024;-38
2021/12/22 09:25:45;;;;;;;10.65;6.40;;;;;;;4.96;37.16;100837.63;5088869;28;20031;-38
2021/12/22 09:28:12;;;;;;;10.98;6.75;;;;;;;5.00;37.41;100833.75;5088991;28;20348;-38
2021/12/22 09:30:41;;;;;;;11.05;6.63;;;;;;;4.78;38.20;100837.53;5089401;28;20035;-38
2021/12/22 09:33:08;;;;;;;11.02;6.57;;;;;;;4.57;38.97;100829.75;5089133;28;20573;-38
2021/12/22 09:35:34;;;;;;;10.27;6.20;;;;;;;4.33;39.18;100830.13;5088572;28;20019;-52
2021/12/22 09:37:59;;;;;;;10.45;6.75;;;;;;;4.39;39.50;100818.22;5088615;28;20008;-51
2021/12/22 09:40:25;;;;;;;12.55;7.45;;;;;;;4.54;38.95;100811.56;5090857;28;20455;-51
2021/12/22 09:42:51;;;;;;;14.23;7.35;;;;;;;5.00;37.86;100809.19;5092551;28;20020;-51
2021/12/22 09:45:18;;;;;;;12.57;7.35;;;;;;;4.69;38.27;100799.63;5091838;28;20556;-50
2021/12/22 09:48:01;;;;;;;13.18;7.07;;;;;;;5.00;38.49;100798.63;5091832;28;20008;-51
2021/12/22 09:53:08;;;;;;;14.30;7.57;;;;;;;5.30;37.73;100800.22;5090364;28;20039;-49
2021/12/22 09:55:34;;;;;;;10.65;6.63;;;;;;;4.36;38.14;100792.97;5091431;28;20032;-51
2021/12/22 09:58:01;;;;;;;11.82;6.80;;;;;;;4.15;39.02;100793.09;5091205;28;20089;-52
2021/12/22 10:00:26;;;;;;;13.70;8.40;;;;;;;4.48;39.11;100785.75;5088911;28;20191;-49
2021/12/22 10:02:52;;;;;;;13.88;7.07;;;;;;;4.60;38.27;100789.91;5092421;28;20161;-49
2021/12/22 10:05:17;;;;;;;11.00;6.72;;;;;;;4.78;39.58;100783.94;5092055;28;20035;-52
2021/12/22 10:07:44;;;;;;;12.88;6.85;;;;;;;4.84;37.43;100784.22;5091967;28;20032;-50
2021/12/22 10:10:10;;;;;;;13.65;6.78;;;;;;;5.00;38.48;100790.72;5092203;28;20448;-50
2021/12/22 10:12:36;;;;;;;13.52;7.10;;;;;;;4.64;38.42;100786.00;5091767;28;20468;-52
2021/12/22 10:15:04;;;;;;;12.43;6.57;;;;;;;4.73;38.31;100783.53;5091499;28;20032;-52
2021/12/22 10:17:42;;;;;;;11.95;6.50;;;;;;;4.86;38.33;100774.34;5092132;28;20081;-50
2021/12/22 10:20:13;;;;;;;9.35;5.85;;;;;;;4.68;38.29;100787.44;5092152;28;20111;-51
2021/12/22 10:22:44;;;;;;;10.90;6.00;;;;;;;5.02;37.50;100783.47;5091270;28;20062;-51
2021/12/22 10:25:10;;;;;;;24.17;13.82;;;;;;;5.01;37.81;100782.66;5090561;28;20031;-50
2021/12/22 10:27:37;;;;;;;20.25;11.13;;;;;;;5.22;38.20;100777.19;5090398;28;20061;-52
2021/12/22 10:30:29;;;;;;;13.85;6.97;;;;;;;5.15;37.66;100770.81;5091298;28;20024;-49
2021/12/22 10:33:15;;;;;;;9.25;6.10;;;;;;;5.15;37.94;100767.34;5091292;28;20028;-51
2021/12/22 10:35:45;;;;;;;16.48;6.78;;;;;;;4.98;37.83;100769.75;5089757;28;20198;-51
2021/12/22 10:38:12;;;;;;;12.43;6.53;;;;;;;4.84;37.26;100764.94;5091444;28;20482;-51
2021/12/22 10:40:45;;;;;;;12.50;6.78;;;;;;;5.38;37.09;100773.13;5090764;28;20104;-52
2021/12/22 10:43:21;;;;;;;9.50;5.35;;;;;;;5.19;36.64;100768.72;5091033;28;20028;-49
2021/12/22 10:45:50;;;;;;;8.70;5.50;;;;;;;5.44;36.63;100768.06;5091328;28;20055;-51
2021/12/22 10:51:05;;;;;;;11.40;7.35;;;;;;;5.42;37.93;100763.91;5090772;28;20105;-52
2021/12/22 10:53:30;;;;;;;12.50;7.50;;;;;;;5.42;38.12;100754.19;5091343;28;20089;-51
2021/12/22 10:55:56;;;;;;;12.80;6.55;;;;;;;4.84;38.31;100743.81;5091012;28;20036;-53
2021/12/22 10:58:23;;;;;;;11.20;6.80;;;;;;;5.13;38.44;100738.47;5090925;28;20360;-53
2021/12/22 11:01:09;;;;;;;10.82;6.93;;;;;;;5.37;37.53;100734.47;5091130;28;20503;-51
2021/12/22 11:03:47;;;;;;;10.30;6.50;;;;;;;4.59;38.81;100730.25;5090658;28;20036;-51
2021/12/22 11:06:17;;;;;;;12.43;7.40;;;;;;;4.78;39.59;100728.53;5090989;28;20101;-53
2021/12/22 11:09:04;;;;;;;12.23;7.30;;;;;;;5.11;39.64;100729.88;5091088;28;20419;-54
2021/12/22 11:11:36;;;;;;;12.38;7.25;;;;;;;4.74;38.92;100719.25;5091100;28;20103;-50
2021/12/22 11:14:24;;;;;;;11.23;6.70;;;;;;;5.18;38.79;100716.91;5091082;28;20527;-52
2021/12/22 11:16:57;;;;;;;10.80;6.18;;;;;;;5.31;38.00;100719.22;5090956;28;20111;-50
2021/12/22 11:19:23;;;;;;;10.60;6.35;;;;;;;5.59;37.97;100714.78;5078612;28;20032;-51
2021/12/22 11:22:01;;;;;;;20.42;10.57;;;;;;;5.46;37.58;100720.41;5090480;28;20031;-51
2021/12/22 11:24:27;;;;;;;10.85;6.07;;;;;;;5.13;37.76;100719.16;5084452;28;20111;-50
2021/12/22 11:26:53;;;;;;;8.88;4.97;;;;;;;5.36;38.36;100717.81;5083906;28;20115;-52
2021/12/22 11:29:19;;;;;;;11.02;5.82;;;;;;;5.20;37.62;100720.25;5070378;28;20028;-50
2021/12/22 11:31:46;;;;;;;9.55;5.80;;;;;;;5.06;39.07;100711.84;5085237;28;20148;-51
2021/12/22 11:34:13;;;;;;;10.32;6.15;;;;;;;5.08;38.11;100709.03;5090700;28;20086;-50
2021/12/22 11:36:39;;;;;;;12.65;6.38;;;;;;;5.33;38.02;100720.75;5089039;28;20028;-51